createdAt,value
2023-04-19T00:00:57.901Z,11.30
2023-04-19T00:02:00.855Z,11.90
2023-04-19T00:03:04.381Z,11.70
2023-04-19T00:04:08.938Z,12.00
2023-04-19T00:05:13.883Z,10.80
2023-04-19T00:06:17.488Z,10.40
2023-04-19T00:07:20.463Z,9.90
2023-04-19T00:08:23.408Z,10.10
2023-04-19T00:09:26.454Z,11.90
2023-04-19T00:10:29.276Z,11.20
2023-04-19T00:11:32.261Z,8.70
2023-04-19T00:12:35.141Z,9.50
2023-04-19T00:13:38.514Z,10.00
2023-04-19T00:14:41.398Z,8.90
2023-04-19T00:15:44.330Z,11.60
2023-04-19T00:16:47.195Z,9.50
2023-04-19T00:17:50.261Z,11.10
2023-04-19T00:18:53.196Z,12.40
2023-04-19T00:19:56.989Z,9.50
2023-04-19T00:21:00.116Z,10.10
2023-04-19T00:22:03.071Z,10.40
2023-04-19T00:23:05.985Z,10.10
2023-04-19T00:24:08.962Z,11.10
2023-04-19T00:25:11.833Z,12.70
2023-04-19T00:26:15.959Z,9.80
2023-04-19T00:27:19.403Z,8.70
2023-04-19T00:28:22.326Z,9.20
2023-04-19T00:29:25.269Z,8.00
2023-04-19T00:30:28.273Z,9.50
2023-04-19T00:31:31.240Z,9.30
2023-04-19T00:32:34.639Z,10.30
2023-04-19T00:33:37.511Z,9.60
2023-04-19T00:34:40.486Z,10.20
2023-04-19T00:35:43.360Z,9.20
2023-04-19T00:36:46.254Z,7.50
2023-04-19T00:37:49.107Z,7.30
2023-04-19T00:38:51.916Z,8.40
2023-04-19T00:39:55.008Z,8.30
2023-04-19T00:40:59.129Z,9.50
2023-04-19T00:42:02.440Z,11.30
2023-04-19T00:43:05.372Z,10.10
2023-04-19T00:44:09.964Z,9.80
2023-04-19T00:45:13.165Z,9.50
2023-04-19T00:46:16.165Z,10.20
2023-04-19T00:47:19.622Z,10.50
2023-04-19T00:48:22.677Z,9.00
2023-04-19T00:49:26.926Z,9.80
2023-04-19T00:50:30.684Z,10.50
2023-04-19T00:51:34.372Z,9.80
2023-04-19T00:52:37.280Z,12.70
2023-04-19T00:53:40.891Z,10.00
2023-04-19T00:54:45.354Z,11.50
2023-04-19T00:55:51.520Z,12.50
2023-04-19T00:56:54.399Z,10.70
2023-04-19T00:57:57.651Z,13.70
2023-04-19T00:59:00.567Z,14.00
2023-04-19T01:00:06.730Z,13.90
2023-04-19T01:01:09.670Z,12.00
2023-04-19T01:02:12.956Z,11.10
2023-04-19T01:03:17.117Z,12.30
2023-04-19T01:04:20.445Z,13.40
2023-04-19T01:05:23.720Z,14.90
2023-04-19T01:06:28.292Z,17.10
2023-04-19T01:07:33.998Z,12.30
2023-04-19T01:08:36.938Z,14.20
2023-04-19T01:09:46.663Z,14.70
2023-04-19T01:11:52.662Z,12.60
2023-04-19T01:12:55.611Z,15.70
2023-04-19T01:13:58.693Z,12.30
2023-04-19T01:15:02.888Z,17.10
2023-04-19T01:16:07.025Z,13.30
2023-04-19T01:17:11.008Z,16.00
2023-04-19T01:18:14.222Z,16.40
2023-04-19T01:19:18.945Z,16.60
2023-04-19T01:20:21.895Z,16.90
2023-04-19T01:21:24.759Z,18.30
2023-04-19T01:22:28.389Z,15.00
2023-04-19T01:23:31.388Z,13.30
2023-04-19T01:24:34.645Z,14.90
2023-04-19T01:25:38.192Z,14.20
2023-04-19T01:26:41.042Z,12.30
2023-04-19T01:27:44.556Z,15.60
2023-04-19T01:28:47.466Z,14.60
2023-04-19T01:29:52.696Z,15.90
2023-04-19T01:30:55.767Z,14.00
2023-04-19T01:31:58.667Z,15.10
2023-04-19T01:33:03.244Z,15.00
2023-04-19T01:34:06.403Z,14.80
2023-04-19T01:35:11.523Z,14.90
2023-04-19T01:36:14.502Z,17.80
2023-04-19T01:37:18.041Z,19.50
2023-04-19T01:38:21.003Z,16.90
2023-04-19T01:39:27.449Z,17.90
2023-04-19T01:40:30.500Z,16.40
2023-04-19T01:41:34.113Z,14.60
2023-04-19T01:42:36.981Z,17.40
2023-04-19T01:43:39.834Z,14.30
2023-04-19T01:44:42.709Z,14.50
2023-04-19T01:45:46.059Z,15.50
2023-04-19T01:46:48.969Z,15.70
2023-04-19T01:47:52.767Z,17.10
2023-04-19T01:48:55.792Z,15.30
2023-04-19T01:49:59.142Z,15.80
2023-04-19T01:51:02.101Z,16.40
2023-04-19T01:52:05.157Z,16.60
2023-04-19T01:53:08.016Z,18.10
2023-04-19T01:54:11.051Z,15.60
2023-04-19T01:55:13.917Z,17.20
2023-04-19T01:56:16.804Z,19.40
2023-04-19T01:57:19.693Z,17.60
2023-04-19T01:58:23.478Z,20.20
2023-04-19T01:59:26.436Z,17.50
2023-04-19T02:00:29.522Z,19.80
2023-04-19T02:01:32.440Z,18.50
2023-04-19T02:02:39.147Z,19.30
2023-04-19T02:03:42.938Z,19.60
2023-04-19T02:04:46.010Z,25.00
2023-04-19T02:05:49.475Z,23.70
2023-04-19T02:06:52.453Z,20.70
2023-04-19T02:07:55.529Z,17.10
2023-04-19T02:08:58.485Z,15.50
2023-04-19T02:10:01.436Z,20.40
2023-04-19T02:11:08.881Z,21.50
2023-04-19T02:12:11.805Z,14.40
2023-04-19T02:13:14.867Z,15.60
2023-04-19T02:14:18.044Z,20.30
2023-04-19T02:15:21.028Z,16.30
2023-04-19T02:16:24.452Z,14.80
2023-04-19T02:17:27.789Z,15.70
2023-04-19T02:18:30.870Z,14.80
2023-04-19T02:19:33.749Z,20.30
2023-04-19T02:20:36.656Z,15.40
2023-04-19T02:21:39.974Z,17.40
2023-04-19T02:22:43.934Z,21.30
2023-04-19T02:23:47.285Z,15.10
2023-04-19T02:24:51.175Z,18.10
2023-04-19T02:25:54.093Z,16.80
2023-04-19T02:26:57.021Z,15.50
2023-04-19T02:27:59.881Z,17.00
2023-04-19T02:29:05.572Z,16.10
2023-04-19T02:30:09.990Z,14.00
2023-04-19T02:31:13.059Z,16.50
2023-04-19T02:32:16.008Z,16.70
2023-04-19T02:33:18.917Z,17.90
2023-04-19T02:34:21.768Z,18.20
2023-04-19T02:35:24.653Z,19.40
2023-04-19T02:36:27.522Z,17.30
2023-04-19T02:37:31.610Z,19.10
2023-04-19T02:38:34.498Z,17.80
2023-04-19T02:39:37.638Z,20.90
2023-04-19T02:40:40.702Z,19.10
2023-04-19T02:41:43.671Z,19.30
2023-04-19T02:42:46.589Z,22.70
2023-04-19T02:43:49.442Z,20.70
2023-04-19T02:44:52.307Z,19.80
2023-04-19T02:45:55.290Z,23.10
2023-04-19T02:46:58.295Z,20.90
2023-04-19T02:48:01.250Z,19.20
2023-04-19T02:49:04.369Z,23.50
2023-04-19T02:50:07.823Z,22.30
2023-04-19T02:51:18.071Z,19.80
2023-04-19T02:52:27.836Z,21.50
2023-04-19T02:53:31.065Z,18.50
2023-04-19T02:54:34.350Z,20.90
2023-04-19T02:55:37.304Z,18.30
2023-04-19T02:56:42.977Z,21.80
2023-04-19T02:57:45.890Z,20.50
2023-04-19T02:58:48.867Z,21.20
2023-04-19T02:59:51.990Z,23.30
2023-04-19T03:00:55.121Z,21.30
2023-04-19T03:01:58.378Z,21.60
2023-04-19T03:03:04.145Z,20.20
2023-04-19T03:04:07.433Z,20.90
2023-04-19T03:05:10.902Z,23.00
2023-04-19T03:06:13.892Z,22.00
2023-04-19T03:07:17.151Z,23.00
2023-04-19T03:08:19.995Z,24.20
2023-04-19T03:09:22.842Z,24.90
2023-04-19T03:10:26.272Z,23.20
2023-04-19T03:11:29.192Z,22.20
2023-04-19T03:12:32.033Z,20.90
2023-04-19T03:13:35.001Z,22.20
2023-04-19T03:14:37.972Z,24.30
2023-04-19T03:15:40.890Z,23.70
2023-04-19T03:16:44.301Z,23.20
2023-04-19T03:17:47.310Z,20.40
2023-04-19T03:18:50.716Z,27.10
2023-04-19T03:19:56.743Z,24.60
2023-04-19T03:20:59.737Z,24.00
2023-04-19T03:22:04.857Z,26.10
2023-04-19T03:23:08.304Z,23.70
2023-04-19T03:24:11.239Z,22.90
2023-04-19T03:25:16.072Z,23.10
2023-04-19T03:26:20.826Z,25.80
2023-04-19T03:27:26.928Z,26.90
2023-04-19T03:28:35.027Z,25.00
2023-04-19T03:29:48.998Z,22.20
2023-04-19T03:30:52.240Z,23.90
2023-04-19T03:31:55.240Z,25.70
2023-04-19T03:33:00.124Z,22.80
2023-04-19T03:34:03.566Z,23.80
2023-04-19T03:35:11.396Z,23.40
2023-04-19T03:36:14.993Z,27.00
2023-04-19T03:37:19.227Z,25.30
2023-04-19T03:38:22.918Z,21.10
2023-04-19T03:39:26.414Z,26.30
2023-04-19T03:40:38.085Z,25.10
2023-04-19T03:41:41.204Z,27.50
2023-04-19T03:42:53.210Z,24.10
2023-04-19T03:44:06.086Z,24.70
2023-04-19T03:45:10.356Z,26.10
2023-04-19T03:46:16.728Z,25.40
2023-04-19T03:47:20.061Z,28.70
2023-04-19T03:48:24.479Z,28.00
2023-04-19T03:49:27.603Z,27.80
2023-04-19T03:50:39.101Z,23.50
2023-04-19T03:51:42.091Z,29.80
2023-04-19T03:52:45.104Z,27.60
2023-04-19T03:53:48.534Z,27.50
2023-04-19T03:54:53.335Z,26.20
2023-04-19T03:56:16.424Z,27.50
2023-04-19T03:57:19.325Z,25.30
2023-04-19T03:58:22.685Z,21.60
2023-04-19T03:59:36.825Z,25.90
2023-04-19T04:00:39.710Z,26.20
2023-04-19T04:01:43.045Z,28.60
2023-04-19T04:02:46.433Z,28.00
2023-04-19T04:03:49.716Z,28.00
2023-04-19T04:04:55.280Z,27.80
2023-04-19T04:05:59.025Z,26.60
2023-04-19T04:07:02.561Z,29.20
2023-04-19T04:08:05.729Z,31.70
2023-04-19T04:09:08.772Z,29.70
2023-04-19T04:10:11.714Z,26.30
2023-04-19T04:11:18.448Z,29.10
2023-04-19T04:12:23.620Z,29.70
2023-04-19T04:13:30.420Z,29.50
2023-04-19T04:14:41.684Z,30.30
2023-04-19T04:15:44.889Z,30.20
2023-04-19T04:16:48.330Z,27.20
2023-04-19T04:17:51.767Z,29.60
2023-04-19T04:18:55.687Z,30.00
2023-04-19T04:20:01.408Z,26.40
2023-04-19T04:21:06.140Z,31.30
2023-04-19T04:22:10.995Z,30.00
2023-04-19T04:23:16.727Z,26.70
2023-04-19T04:24:23.430Z,32.80
2023-04-19T04:26:01.750Z,36.70
2023-04-19T04:27:23.920Z,29.70
2023-04-19T04:28:29.548Z,30.70
2023-04-19T04:29:33.327Z,30.60
2023-04-19T04:30:37.671Z,31.40
2023-04-19T04:31:41.215Z,30.60
2023-04-19T04:32:45.097Z,30.20
2023-04-19T04:33:48.144Z,29.10
2023-04-19T04:34:51.400Z,31.10
2023-04-19T04:36:02.898Z,30.80
2023-04-19T04:37:08.961Z,31.50
2023-04-19T04:38:23.554Z,31.50
2023-04-19T04:39:27.625Z,31.00
2023-04-19T04:40:30.773Z,32.70
2023-04-19T04:41:36.033Z,33.00
2023-04-19T04:42:40.925Z,31.10
2023-04-19T04:43:45.678Z,34.20
2023-04-19T04:44:51.079Z,37.80
2023-04-19T04:45:56.996Z,26.40
2023-04-19T04:47:00.833Z,30.40
2023-04-19T04:48:04.207Z,31.20
2023-04-19T04:49:07.756Z,32.60
2023-04-19T04:50:10.998Z,31.90
2023-04-19T04:51:13.904Z,35.00
2023-04-19T04:52:17.514Z,31.90
2023-04-19T04:53:33.747Z,30.90
2023-04-19T04:54:38.538Z,28.00
2023-04-19T04:55:44.229Z,26.40
2023-04-19T04:56:49.700Z,25.00
2023-04-19T04:57:52.718Z,31.00
2023-04-19T04:59:04.797Z,27.80
2023-04-19T05:00:12.788Z,28.80
2023-04-19T05:01:24.803Z,28.00
2023-04-19T05:02:32.987Z,29.80
2023-04-19T05:03:36.302Z,30.70
2023-04-19T05:04:41.032Z,29.10
2023-04-19T05:05:45.230Z,34.00
2023-04-19T05:06:48.320Z,32.90
2023-04-19T05:07:56.228Z,30.80
2023-04-19T05:08:59.067Z,29.80
2023-04-19T05:10:11.608Z,30.60
2023-04-19T05:11:21.174Z,35.90
2023-04-19T05:12:24.257Z,31.70
2023-04-19T05:13:27.370Z,29.90
2023-04-19T05:14:30.761Z,27.60
2023-04-19T05:15:33.726Z,48.70
2023-04-19T05:16:50.382Z,35.90
2023-04-19T05:17:53.860Z,33.90
2023-04-19T05:18:57.630Z,33.40
2023-04-19T05:20:01.124Z,31.70
2023-04-19T05:21:04.591Z,34.90
2023-04-19T05:22:07.950Z,36.60
2023-04-19T05:23:12.384Z,31.40
2023-04-19T05:24:15.914Z,30.70
2023-04-19T05:25:19.701Z,32.50
2023-04-19T05:26:23.226Z,33.30
2023-04-19T05:27:26.541Z,35.20
2023-04-19T05:28:30.268Z,31.00
2023-04-19T05:29:46.776Z,30.20
2023-04-19T05:30:52.339Z,31.00
2023-04-19T05:31:57.854Z,29.10
2023-04-19T05:33:05.393Z,30.00
2023-04-19T05:34:08.604Z,35.00
2023-04-19T05:35:12.185Z,30.60
2023-04-19T05:36:15.196Z,33.20
2023-04-19T05:37:18.296Z,29.60
2023-04-19T05:38:21.189Z,29.70
2023-04-19T05:39:24.421Z,29.90
2023-04-19T05:40:28.521Z,29.30
2023-04-19T05:41:31.434Z,27.40
2023-04-19T05:42:34.375Z,28.50
2023-04-19T05:43:37.744Z,26.40
2023-04-19T05:44:41.576Z,23.10
2023-04-19T05:45:44.778Z,25.50
2023-04-19T05:46:47.908Z,27.60
2023-04-19T05:47:53.977Z,27.90
2023-04-19T05:48:59.824Z,29.20
2023-04-19T05:50:21.613Z,26.90
2023-04-19T05:51:40.081Z,27.20
2023-04-19T05:52:47.638Z,30.90
2023-04-19T05:53:50.584Z,29.60
2023-04-19T05:54:53.501Z,28.50
2023-04-19T05:55:56.649Z,28.60
2023-04-19T05:56:59.547Z,28.60
2023-04-19T05:58:02.460Z,30.70
2023-04-19T05:59:05.484Z,26.50
2023-04-19T06:00:09.815Z,27.50
2023-04-19T06:01:23.515Z,28.70
2023-04-19T06:02:26.855Z,26.60
2023-04-19T06:03:32.023Z,23.20
2023-04-19T06:04:36.417Z,25.70
2023-04-19T06:05:41.108Z,26.90
2023-04-19T06:06:44.207Z,28.00
2023-04-19T06:07:55.737Z,26.80
2023-04-19T06:09:04.949Z,24.20
2023-04-19T06:10:08.508Z,26.10
2023-04-19T06:11:22.949Z,32.10
2023-04-19T06:12:29.740Z,27.30
2023-04-19T06:13:32.722Z,26.70
2023-04-19T06:14:35.611Z,27.50
2023-04-19T06:15:40.206Z,23.30
2023-04-19T06:16:43.331Z,24.00
2023-04-19T06:17:46.188Z,28.40
2023-04-19T06:18:49.075Z,26.80
2023-04-19T06:19:53.101Z,27.10
2023-04-19T06:20:56.331Z,24.60
2023-04-19T06:21:59.411Z,22.20
2023-04-19T06:23:02.336Z,24.40
2023-04-19T06:24:08.619Z,26.80
2023-04-19T06:25:12.279Z,24.80
2023-04-19T06:26:15.208Z,28.50
2023-04-19T06:27:18.579Z,22.60
2023-04-19T06:28:21.463Z,24.20
2023-04-19T06:29:25.892Z,25.10
2023-04-19T06:30:28.858Z,24.00
2023-04-19T06:31:32.671Z,26.90
2023-04-19T06:32:35.903Z,25.00
2023-04-19T06:33:39.349Z,26.30
2023-04-19T06:34:42.606Z,22.00
2023-04-19T06:35:45.581Z,22.90
2023-04-19T06:36:48.470Z,23.70
2023-04-19T06:37:52.089Z,23.40
2023-04-19T06:38:55.082Z,20.90
2023-04-19T06:39:58.002Z,20.90
2023-04-19T06:41:00.988Z,21.80
2023-04-19T06:42:04.167Z,22.70
2023-04-19T06:43:07.207Z,24.20
2023-04-19T06:44:10.134Z,24.60
2023-04-19T06:45:13.100Z,30.10
2023-04-19T06:46:16.129Z,27.00
2023-04-19T06:47:19.423Z,30.40
2023-04-19T06:48:22.274Z,27.80
2023-04-19T06:49:25.280Z,26.90
2023-04-19T06:50:29.035Z,28.60
2023-04-19T06:51:33.201Z,29.70
2023-04-19T06:52:36.070Z,27.10
2023-04-19T06:53:39.174Z,31.20
2023-04-19T06:54:42.094Z,32.00
2023-04-19T06:55:46.003Z,31.00
2023-04-19T06:56:50.276Z,32.10
2023-04-19T06:57:53.209Z,29.10
2023-04-19T06:58:56.062Z,31.60
2023-04-19T07:00:00.236Z,34.20
2023-04-19T07:01:04.642Z,28.60
2023-04-19T07:02:14.027Z,28.80
2023-04-19T07:03:17.121Z,28.30
2023-04-19T07:04:20.418Z,30.00
2023-04-19T07:05:23.633Z,31.90
2023-04-19T07:06:27.005Z,32.80
2023-04-19T07:07:29.950Z,27.40
2023-04-19T07:08:48.287Z,32.10
2023-04-19T07:09:51.953Z,33.50
2023-04-19T07:10:56.702Z,34.00
2023-04-19T07:11:59.560Z,35.00
2023-04-19T07:13:02.444Z,33.60
2023-04-19T07:14:05.884Z,34.50
2023-04-19T07:15:09.418Z,34.50
2023-04-19T07:16:13.344Z,33.90
2023-04-19T07:17:18.311Z,31.80
2023-04-19T07:18:21.245Z,29.90
2023-04-19T07:19:24.442Z,35.10
2023-04-19T07:20:27.468Z,38.90
2023-04-19T07:21:33.506Z,32.90
2023-04-19T07:22:36.595Z,35.80
2023-04-19T07:23:39.590Z,36.40
2023-04-19T07:24:44.642Z,34.70
2023-04-19T07:25:47.527Z,34.80
2023-04-19T07:26:50.512Z,40.40
2023-04-19T07:27:54.995Z,36.80
2023-04-19T07:28:58.406Z,37.60
2023-04-19T07:30:01.245Z,37.00
2023-04-19T07:31:04.270Z,37.30
2023-04-19T07:32:07.234Z,41.50
2023-04-19T07:33:10.324Z,42.00
2023-04-19T07:34:13.261Z,41.80
2023-04-19T07:35:16.198Z,37.30
2023-04-19T07:36:19.256Z,41.80
2023-04-19T07:37:22.774Z,37.30
2023-04-19T07:38:25.652Z,34.30
2023-04-19T07:39:28.546Z,40.20
2023-04-19T07:40:31.402Z,42.80
2023-04-19T07:41:35.919Z,41.50
2023-04-19T07:42:39.428Z,41.30
2023-04-19T07:43:42.370Z,38.40
2023-04-19T07:44:45.307Z,37.10
2023-04-19T07:45:48.266Z,39.50
2023-04-19T07:46:51.236Z,37.70
2023-04-19T07:47:54.208Z,36.10
2023-04-19T07:48:57.270Z,34.60
2023-04-19T07:50:00.305Z,39.90
2023-04-19T07:51:13.921Z,41.80
2023-04-19T07:52:18.942Z,40.10
2023-04-19T07:53:21.893Z,36.30
2023-04-19T07:54:24.861Z,36.80
2023-04-19T07:55:27.818Z,33.50
2023-04-19T07:56:30.886Z,38.20
2023-04-19T07:57:35.688Z,40.90
2023-04-19T07:58:42.260Z,41.80
2023-04-19T07:59:45.919Z,41.40
2023-04-19T08:00:48.955Z,46.20
2023-04-19T08:01:52.068Z,42.20
2023-04-19T08:02:55.055Z,43.10
2023-04-19T08:03:58.380Z,45.50
2023-04-19T08:05:02.612Z,48.60
2023-04-19T08:06:08.267Z,47.00
2023-04-19T08:07:11.263Z,44.80
2023-04-19T08:08:14.129Z,43.80
2023-04-19T08:09:17.053Z,47.30
2023-04-19T08:10:22.222Z,38.10
2023-04-19T08:11:25.464Z,46.20
2023-04-19T08:12:35.097Z,48.20
2023-04-19T08:13:42.148Z,42.30
2023-04-19T08:15:01.552Z,48.50
2023-04-19T08:16:27.202Z,48.90
2023-04-19T08:18:38.053Z,42.60
2023-04-19T08:19:41.039Z,51.60
2023-04-19T08:20:43.929Z,47.80
2023-04-19T08:21:46.886Z,47.70
2023-04-19T08:22:49.842Z,44.50
2023-04-19T08:23:54.470Z,50.10
2023-04-19T08:24:57.418Z,44.70
2023-04-19T08:26:00.432Z,44.80
2023-04-19T08:27:03.366Z,42.80
2023-04-19T08:28:06.651Z,44.50
2023-04-19T08:29:09.677Z,47.60
2023-04-19T08:30:13.067Z,48.20
2023-04-19T08:31:16.040Z,52.70
2023-04-19T08:32:18.946Z,50.70
2023-04-19T08:33:22.443Z,51.50
2023-04-19T08:34:25.498Z,49.90
2023-04-19T08:35:28.377Z,45.70
2023-04-19T08:36:39.116Z,47.60
2023-04-19T08:37:44.171Z,47.80
2023-04-19T08:38:54.838Z,44.80
2023-04-19T08:40:06.115Z,47.00
2023-04-19T08:41:11.611Z,45.70
2023-04-19T08:42:28.901Z,43.40
2023-04-19T08:43:39.262Z,44.90
2023-04-19T08:44:59.694Z,47.00
2023-04-19T08:46:08.703Z,48.30
2023-04-19T08:47:17.697Z,45.60
2023-04-19T08:48:33.812Z,46.80
2023-04-19T08:49:37.822Z,42.70
2023-04-19T08:50:56.417Z,45.00
2023-04-19T08:52:08.304Z,43.40
2023-04-19T08:54:18.508Z,41.50
2023-04-19T08:55:21.580Z,42.70
2023-04-19T08:56:34.952Z,43.10
2023-04-19T08:57:38.813Z,43.20
2023-04-19T08:59:00.470Z,40.40
2023-04-19T09:00:10.676Z,38.20
2023-04-19T09:01:22.948Z,34.80
2023-04-19T09:02:50.969Z,26.20
2023-04-19T09:04:04.922Z,25.20
2023-04-19T09:05:19.151Z,25.50
2023-04-19T09:06:22.415Z,24.10
2023-04-19T09:07:27.695Z,19.20
2023-04-19T09:08:31.548Z,21.00
2023-04-19T09:09:43.099Z,18.20
2023-04-19T09:10:57.072Z,19.70
2023-04-19T09:12:00.746Z,18.50
2023-04-19T09:13:05.725Z,18.40
2023-04-19T09:14:16.416Z,15.70
2023-04-19T09:15:36.254Z,16.10
2023-04-19T09:16:39.503Z,14.40
2023-04-19T09:17:42.596Z,15.30
2023-04-19T09:19:08.221Z,17.10
2023-04-19T09:20:36.331Z,17.50
2023-04-19T09:21:39.958Z,13.80
2023-04-19T09:22:42.878Z,14.40
2023-04-19T09:23:48.577Z,17.30
2023-04-19T09:26:22.023Z,17.10
2023-04-19T09:27:30.892Z,19.80
2023-04-19T09:29:36.526Z,17.10
2023-04-19T09:30:54.800Z,20.20
2023-04-19T09:32:03.497Z,14.80
2023-04-19T09:33:07.986Z,13.40
2023-04-19T09:34:15.643Z,13.70
2023-04-19T09:35:19.006Z,12.50
2023-04-19T09:36:32.949Z,12.30
2023-04-19T09:38:49.479Z,12.10
2023-04-19T09:39:53.307Z,13.50
2023-04-19T09:41:07.827Z,12.70
2023-04-19T09:42:10.862Z,13.30
2023-04-19T09:43:49.708Z,12.40
2023-04-19T09:45:25.431Z,12.10
2023-04-19T09:46:35.100Z,14.50
2023-04-19T09:47:38.023Z,14.70
2023-04-19T09:48:40.910Z,13.40
2023-04-19T09:49:49.040Z,14.70
2023-04-19T09:50:58.331Z,13.20
2023-04-19T09:52:04.130Z,12.90
2023-04-19T09:53:07.429Z,12.50
2023-04-19T09:54:11.586Z,12.60
2023-04-19T09:55:25.813Z,14.00
2023-04-19T09:56:30.697Z,13.80
2023-04-19T09:57:34.943Z,14.90
2023-04-19T09:58:49.473Z,15.80
2023-04-19T09:59:53.833Z,15.20
2023-04-19T10:01:10.594Z,16.90
2023-04-19T10:02:17.924Z,17.40
2023-04-19T10:03:22.208Z,17.10
2023-04-19T10:04:43.537Z,17.70
2023-04-19T10:05:50.787Z,17.70
2023-04-19T10:07:19.450Z,18.00
2023-04-19T10:08:27.040Z,17.90
2023-04-19T10:09:55.045Z,17.90
2023-04-19T10:11:01.225Z,18.40
2023-04-19T10:12:16.106Z,19.40
2023-04-19T10:13:29.412Z,21.00
2023-04-19T10:14:36.304Z,19.40
2023-04-19T10:17:12.443Z,16.60
2023-04-19T10:18:15.821Z,22.10
2023-04-19T10:19:21.828Z,16.40
2023-04-19T10:20:37.727Z,25.40
2023-04-19T10:21:43.266Z,15.60
2023-04-19T10:22:46.596Z,14.30
2023-04-19T10:23:49.797Z,13.70
2023-04-19T10:25:28.103Z,13.40
2023-04-19T10:26:31.069Z,13.20
2023-04-19T10:27:35.034Z,15.90
2023-04-19T10:28:38.256Z,17.90
2023-04-19T10:29:53.628Z,17.40
2023-04-19T10:31:04.839Z,17.90
2023-04-19T10:32:13.670Z,13.60
2023-04-19T10:33:25.424Z,15.60
2023-04-19T10:34:37.967Z,12.50
2023-04-19T10:35:44.750Z,13.10
2023-04-19T10:36:47.629Z,13.40
2023-04-19T10:38:12.995Z,13.30
2023-04-19T10:39:41.565Z,15.30
2023-04-19T10:41:01.837Z,13.10
2023-04-19T10:42:04.976Z,16.70
2023-04-19T10:43:13.653Z,12.70
2023-04-19T10:44:16.626Z,12.40
2023-04-19T10:45:34.289Z,12.90
2023-04-19T10:46:40.911Z,12.50
2023-04-19T10:47:46.720Z,12.60
2023-04-19T10:49:14.119Z,16.90
2023-04-19T10:50:17.931Z,14.40
2023-04-19T10:51:28.088Z,12.30
2023-04-19T10:53:47.965Z,11.30
2023-04-19T10:54:57.082Z,13.00
2023-04-19T10:55:59.974Z,13.20
2023-04-19T10:57:04.683Z,12.10
2023-04-19T10:58:07.889Z,11.60
2023-04-19T10:59:21.678Z,11.70
2023-04-19T11:00:25.805Z,12.10
2023-04-19T11:01:46.968Z,13.60
2023-04-19T11:02:50.069Z,17.70
2023-04-19T11:03:53.396Z,14.30
2023-04-19T11:04:56.597Z,14.10
2023-04-19T11:06:20.244Z,16.90
2023-04-19T11:07:29.477Z,15.40
2023-04-19T11:08:32.593Z,15.30
2023-04-19T11:09:42.576Z,14.40
2023-04-19T11:10:45.709Z,14.30
2023-04-19T11:11:48.597Z,14.30
2023-04-19T11:12:51.782Z,14.70
2023-04-19T11:14:02.553Z,15.80
2023-04-19T11:15:06.440Z,18.10
2023-04-19T11:16:10.336Z,15.20
2023-04-19T11:17:20.643Z,16.70
2023-04-19T11:18:30.051Z,16.30
2023-04-19T11:19:33.020Z,20.00
2023-04-19T11:20:35.923Z,13.90
2023-04-19T11:21:41.937Z,13.90
2023-04-19T11:22:47.533Z,15.30
2023-04-19T11:24:06.231Z,13.90
2023-04-19T11:25:13.326Z,14.90
2023-04-19T11:26:19.388Z,13.40
2023-04-19T11:27:22.405Z,16.20
2023-04-19T11:28:25.442Z,13.60
2023-04-19T11:29:28.348Z,12.40
2023-04-19T11:30:32.006Z,13.80
2023-04-19T11:31:35.396Z,12.40
2023-04-19T11:32:44.299Z,14.00
2023-04-19T11:33:47.504Z,13.90
2023-04-19T11:34:50.368Z,14.10
2023-04-19T11:35:53.734Z,16.80
2023-04-19T11:36:56.622Z,20.50
2023-04-19T11:37:59.819Z,14.90
2023-04-19T11:39:06.407Z,13.70
2023-04-19T11:40:09.814Z,13.90
2023-04-19T11:41:12.931Z,14.40
2023-04-19T11:42:20.585Z,13.10
2023-04-19T11:43:23.476Z,14.80
2023-04-19T11:44:26.542Z,12.70
2023-04-19T11:45:33.128Z,13.40
2023-04-19T11:46:38.683Z,13.70
2023-04-19T11:47:49.058Z,13.00
2023-04-19T11:48:53.385Z,12.90
2023-04-19T11:49:56.703Z,15.40
2023-04-19T11:51:00.774Z,11.00
2023-04-19T11:52:06.661Z,14.50
2023-04-19T11:53:23.759Z,14.50
2023-04-19T11:54:27.555Z,14.00
2023-04-19T11:55:33.812Z,12.10
2023-04-19T11:56:36.740Z,11.60
2023-04-19T11:57:41.828Z,12.40
2023-04-19T11:58:48.452Z,11.50
2023-04-19T12:00:12.159Z,12.40
2023-04-19T12:01:15.416Z,11.90
2023-04-19T12:02:18.383Z,12.40
2023-04-19T12:03:26.495Z,11.60
2023-04-19T12:04:30.405Z,12.70
2023-04-19T12:05:33.838Z,14.90
2023-04-19T12:06:37.385Z,15.70
2023-04-19T12:08:03.072Z,15.80
2023-04-19T12:09:09.422Z,14.30
2023-04-19T12:10:12.814Z,14.70
2023-04-19T12:11:18.858Z,10.90
2023-04-19T12:12:33.609Z,16.20
2023-04-19T12:13:37.045Z,11.00
2023-04-19T12:14:52.360Z,12.40
2023-04-19T12:15:55.998Z,11.90
2023-04-19T12:17:14.566Z,11.50
2023-04-19T12:18:17.619Z,11.00
2023-04-19T12:19:20.752Z,13.80
2023-04-19T12:20:32.827Z,10.20
2023-04-19T12:21:35.726Z,10.40
2023-04-19T12:22:38.562Z,11.20
2023-04-19T12:23:41.552Z,11.90
2023-04-19T12:24:44.397Z,10.90
2023-04-19T12:25:48.758Z,9.30
2023-04-19T12:26:56.958Z,10.00
2023-04-19T12:28:03.157Z,14.90
2023-04-19T12:29:06.166Z,10.00
2023-04-19T12:30:09.961Z,12.60
2023-04-19T12:31:12.853Z,12.20
2023-04-19T12:32:16.123Z,12.70
2023-04-19T12:33:19.167Z,13.40
2023-04-19T12:34:22.047Z,10.70
2023-04-19T12:35:27.696Z,12.30
2023-04-19T12:36:30.703Z,12.80
2023-04-19T12:37:33.853Z,9.70
2023-04-19T12:38:37.688Z,10.10
2023-04-19T12:39:40.610Z,12.80
2023-04-19T12:40:43.580Z,10.90
2023-04-19T12:41:48.817Z,13.40
2023-04-19T12:42:52.239Z,13.70
2023-04-19T12:43:55.106Z,12.40
2023-04-19T12:44:57.955Z,10.60
2023-04-19T12:46:01.526Z,13.80
2023-04-19T12:47:04.554Z,10.70
2023-04-19T12:48:07.569Z,12.30
2023-04-19T12:49:10.701Z,11.80
2023-04-19T12:50:15.300Z,11.20
2023-04-19T12:51:18.154Z,14.20
2023-04-19T12:52:21.462Z,11.80
2023-04-19T12:53:24.994Z,12.40
2023-04-19T12:54:27.990Z,14.80
2023-04-19T12:55:31.076Z,14.20
2023-04-19T12:56:35.004Z,11.70
2023-04-19T12:57:37.889Z,13.20
2023-04-19T12:58:40.774Z,14.90
2023-04-19T12:59:43.626Z,12.40
2023-04-19T13:00:46.734Z,12.90
2023-04-19T13:01:49.904Z,12.60
2023-04-19T13:02:53.015Z,11.40
2023-04-19T13:03:59.062Z,14.80
2023-04-19T13:05:05.156Z,12.90
2023-04-19T13:06:08.020Z,12.90
2023-04-19T13:07:11.167Z,12.40
2023-04-19T13:08:15.086Z,11.70
2023-04-19T13:09:18.270Z,11.50
2023-04-19T13:10:21.225Z,12.40
2023-04-19T13:11:24.210Z,12.10
2023-04-19T13:12:28.391Z,11.30
2023-04-19T13:13:31.273Z,11.10
2023-04-19T13:14:34.845Z,10.90
2023-04-19T13:15:38.394Z,13.70
2023-04-19T13:16:41.542Z,11.60
2023-04-19T13:17:44.881Z,11.50
2023-04-19T13:18:48.397Z,17.30
2023-04-19T13:19:51.391Z,11.40
2023-04-19T13:20:54.257Z,11.50
2023-04-19T13:21:57.149Z,13.10
2023-04-19T13:23:00.634Z,13.30
2023-04-19T13:24:03.516Z,10.60
2023-04-19T13:25:06.921Z,11.70
2023-04-19T13:26:09.918Z,12.70
2023-04-19T13:27:13.041Z,11.10
2023-04-19T13:28:15.905Z,12.20
2023-04-19T13:29:18.806Z,15.20
2023-04-19T13:30:21.750Z,11.60
2023-04-19T13:31:27.054Z,11.20
2023-04-19T13:32:30.418Z,11.60
2023-04-19T13:33:36.831Z,16.30
2023-04-19T13:34:43.643Z,12.00
2023-04-19T13:35:47.000Z,12.70
2023-04-19T13:36:50.020Z,14.10
2023-04-19T13:37:52.956Z,12.90
2023-04-19T13:38:55.897Z,15.30
2023-04-19T13:40:10.601Z,12.10
2023-04-19T13:41:21.131Z,12.60
2023-04-19T13:42:24.031Z,16.10
2023-04-19T13:43:26.949Z,11.10
2023-04-19T13:44:30.051Z,12.20
2023-04-19T13:45:32.951Z,13.90
2023-04-19T13:46:35.861Z,11.30
2023-04-19T13:47:39.070Z,12.30
2023-04-19T13:48:41.951Z,12.90
2023-04-19T13:49:45.920Z,10.50
2023-04-19T13:50:51.032Z,12.80
2023-04-19T13:51:54.241Z,10.80
2023-04-19T13:52:57.175Z,12.70
2023-04-19T13:54:00.034Z,12.00
2023-04-19T13:55:02.952Z,14.20
2023-04-19T13:56:09.518Z,15.80
2023-04-19T13:57:12.690Z,14.20
2023-04-19T13:58:15.770Z,13.40
2023-04-19T13:59:18.753Z,11.90
2023-04-19T14:00:21.758Z,11.40
2023-04-19T14:01:24.797Z,12.00
2023-04-19T14:02:28.842Z,11.40
2023-04-19T14:03:32.811Z,18.20
2023-04-19T14:04:35.858Z,11.70
2023-04-19T14:05:38.752Z,11.60
2023-04-19T14:06:41.686Z,8.90
2023-04-19T14:07:44.572Z,9.50
2023-04-19T14:08:48.589Z,9.50
2023-04-19T14:09:52.486Z,9.70
2023-04-19T14:10:55.818Z,10.40
2023-04-19T14:11:58.894Z,12.50
2023-04-19T14:13:02.454Z,9.60
2023-04-19T14:14:06.485Z,9.40